sensor_id;sensor_type;location;lat;lon;timestamp;P1;durP1;ratioP1;P2;durP2;ratioP2
5622;SDS011;2833;50.432;10.706;2022-09-09T00:00:55;2.90;;;2.57;;
5622;SDS011;2833;50.432;10.706;2022-09-09T00:03:31;2.40;;;2.20;;
5622;SDS011;2833;50.432;10.706;2022-09-09T00:11:04;5.70;;;2.43;;
5622;SDS011;2833;50.432;10.706;2022-09-09T00:13:37;4.23;;;2.70;;
5622;SDS011;2833;50.432;10.706;2022-09-09T00:16:07;3.70;;;2.50;;
5622;SDS011;2833;50.432;10.706;2022-09-09T00:21:18;2.60;;;2.40;;
5622;SDS011;2833;50.432;10.706;2022-09-09T00:23:50;2.60;;;2.40;;
5622;SDS011;2833;50.432;10.706;2022-09-09T00:28:52;2.43;;;2.23;;
5622;SDS011;2833;50.432;10.706;2022-09-09T00:31:20;4.40;;;2.70;;
5622;SDS011;2833;50.432;10.706;2022-09-09T00:33:47;2.07;;;1.93;;
5622;SDS011;2833;50.432;10.706;2022-09-09T00:36:15;2.63;;;1.97;;
5622;SDS011;2833;50.432;10.706;2022-09-09T00:38:48;3.60;;;1.93;;
5622;SDS011;2833;50.432;10.706;2022-09-09T00:41:19;2.33;;;2.20;;
5622;SDS011;2833;50.432;10.706;2022-09-09T00:43:46;3.37;;;1.80;;
5622;SDS011;2833;50.432;10.706;2022-09-09T00:56:42;2.50;;;2.30;;
5622;SDS011;2833;50.432;10.706;2022-09-09T00:59:25;5.50;;;2.10;;
5622;SDS011;2833;50.432;10.706;2022-09-09T01:01:53;2.70;;;2.33;;
5622;SDS011;2833;50.432;10.706;2022-09-09T01:04:20;2.30;;;2.10;;
5622;SDS011;2833;50.432;10.706;2022-09-09T01:06:52;2.60;;;2.40;;
5622;SDS011;2833;50.432;10.706;2022-09-09T01:15:07;2.93;;;2.50;;
5622;SDS011;2833;50.432;10.706;2022-09-09T01:17:49;3.53;;;2.43;;
5622;SDS011;2833;50.432;10.706;2022-09-09T01:20:17;2.80;;;2.60;;
5622;SDS011;2833;50.432;10.706;2022-09-09T01:28:09;4.47;;;1.93;;
5622;SDS011;2833;50.432;10.706;2022-09-09T01:30:37;5.23;;;1.97;;
5622;SDS011;2833;50.432;10.706;2022-09-09T01:33:03;2.20;;;1.97;;
5622;SDS011;2833;50.432;10.706;2022-09-09T01:38:13;3.60;;;2.60;;
5622;SDS011;2833;50.432;10.706;2022-09-09T01:40:39;2.30;;;2.03;;
5622;SDS011;2833;50.432;10.706;2022-09-09T01:43:04;2.70;;;2.50;;
5622;SDS011;2833;50.432;10.706;2022-09-09T01:45:31;2.00;;;1.90;;
5622;SDS011;2833;50.432;10.706;2022-09-09T01:47:57;1.97;;;1.87;;
5622;SDS011;2833;50.432;10.706;2022-09-09T01:50:22;3.03;;;2.13;;
5622;SDS011;2833;50.432;10.706;2022-09-09T01:52:49;4.43;;;2.13;;
5622;SDS011;2833;50.432;10.706;2022-09-09T01:55:15;2.23;;;2.03;;
5622;SDS011;2833;50.432;10.706;2022-09-09T02:00:13;4.97;;;2.50;;
5622;SDS011;2833;50.432;10.706;2022-09-09T02:02:42;3.77;;;2.50;;
5622;SDS011;2833;50.432;10.706;2022-09-09T02:07:42;2.60;;;2.40;;
5622;SDS011;2833;50.432;10.706;2022-09-09T02:10:13;2.90;;;2.40;;
5622;SDS011;2833;50.432;10.706;2022-09-09T02:12:40;2.50;;;1.97;;
5622;SDS011;2833;50.432;10.706;2022-09-09T02:15:09;2.30;;;2.10;;
5622;SDS011;2833;50.432;10.706;2022-09-09T02:17:36;2.00;;;1.83;;
5622;SDS011;2833;50.432;10.706;2022-09-09T02:20:07;2.40;;;2.23;;
5622;SDS011;2833;50.432;10.706;2022-09-09T02:22:34;2.50;;;2.27;;
5622;SDS011;2833;50.432;10.706;2022-09-09T02:25:00;3.13;;;2.57;;
5622;SDS011;2833;50.432;10.706;2022-09-09T02:27:26;2.40;;;2.20;;
5622;SDS011;2833;50.432;10.706;2022-09-09T02:29:51;4.70;;;2.00;;
5622;SDS011;2833;50.432;10.706;2022-09-09T02:32:19;3.93;;;2.53;;
5622;SDS011;2833;50.432;10.706;2022-09-09T02:34:48;4.03;;;2.63;;
5622;SDS011;2833;50.432;10.706;2022-09-09T02:37:16;2.33;;;2.20;;
5622;SDS011;2833;50.432;10.706;2022-09-09T02:39:42;2.60;;;2.00;;
5622;SDS011;2833;50.432;10.706;2022-09-09T02:42:07;3.13;;;2.13;;
5622;SDS011;2833;50.432;10.706;2022-09-09T02:44:33;3.23;;;2.93;;
5622;SDS011;2833;50.432;10.706;2022-09-09T02:52:32;2.33;;;2.13;;
5622;SDS011;2833;50.432;10.706;2022-09-09T02:54:59;6.80;;;2.80;;
5622;SDS011;2833;50.432;10.706;2022-09-09T02:57:28;2.50;;;2.17;;
5622;SDS011;2833;50.432;10.706;2022-09-09T02:59:56;2.63;;;2.43;;
5622;SDS011;2833;50.432;10.706;2022-09-09T03:02:22;2.53;;;2.33;;
5622;SDS011;2833;50.432;10.706;2022-09-09T03:04:47;3.90;;;2.43;;
5622;SDS011;2833;50.432;10.706;2022-09-09T03:07:16;2.80;;;2.50;;
5622;SDS011;2833;50.432;10.706;2022-09-09T03:09:42;3.57;;;2.50;;
5622;SDS011;2833;50.432;10.706;2022-09-09T03:12:07;2.30;;;2.10;;
5622;SDS011;2833;50.432;10.706;2022-09-09T03:14:33;2.43;;;2.20;;
5622;SDS011;2833;50.432;10.706;2022-09-09T03:16:58;4.37;;;2.43;;
5622;SDS011;2833;50.432;10.706;2022-09-09T03:19:25;6.87;;;2.53;;
5622;SDS011;2833;50.432;10.706;2022-09-09T03:21:51;3.70;;;2.50;;
5622;SDS011;2833;50.432;10.706;2022-09-09T03:24:16;2.80;;;2.20;;
5622;SDS011;2833;50.432;10.706;2022-09-09T03:26:42;2.90;;;2.13;;
5622;SDS011;2833;50.432;10.706;2022-09-09T03:29:09;3.37;;;2.67;;
5622;SDS011;2833;50.432;10.706;2022-09-09T03:31:35;5.00;;;2.50;;
5622;SDS011;2833;50.432;10.706;2022-09-09T03:34:01;2.70;;;2.50;;
5622;SDS011;2833;50.432;10.706;2022-09-09T03:36:26;4.30;;;2.20;;
5622;SDS011;2833;50.432;10.706;2022-09-09T03:38:52;3.53;;;2.30;;
5622;SDS011;2833;50.432;10.706;2022-09-09T03:41:19;2.53;;;2.33;;
5622;SDS011;2833;50.432;10.706;2022-09-09T03:43:44;2.93;;;2.53;;
5622;SDS011;2833;50.432;10.706;2022-09-09T03:46:09;3.00;;;2.23;;
5622;SDS011;2833;50.432;10.706;2022-09-09T03:48:34;2.77;;;2.30;;
5622;SDS011;2833;50.432;10.706;2022-09-09T03:51:00;4.27;;;2.40;;
5622;SDS011;2833;50.432;10.706;2022-09-09T03:53:26;3.40;;;2.43;;
5622;SDS011;2833;50.432;10.706;2022-09-09T03:55:53;4.70;;;2.33;;
5622;SDS011;2833;50.432;10.706;2022-09-09T03:58:19;3.40;;;2.63;;
5622;SDS011;2833;50.432;10.706;2022-09-09T04:00:59;3.50;;;2.47;;
5622;SDS011;2833;50.432;10.706;2022-09-09T04:03:24;2.60;;;2.37;;
5622;SDS011;2833;50.432;10.706;2022-09-09T04:05:53;8.03;;;2.70;;
5622;SDS011;2833;50.432;10.706;2022-09-09T04:08:19;4.50;;;2.43;;
5622;SDS011;2833;50.432;10.706;2022-09-09T04:10:45;2.70;;;2.47;;
5622;SDS011;2833;50.432;10.706;2022-09-09T04:13:11;2.67;;;2.47;;
5622;SDS011;2833;50.432;10.706;2022-09-09T04:15:37;4.10;;;2.80;;
5622;SDS011;2833;50.432;10.706;2022-09-09T04:18:02;3.20;;;2.70;;
5622;SDS011;2833;50.432;10.706;2022-09-09T04:20:27;3.37;;;2.40;;
5622;SDS011;2833;50.432;10.706;2022-09-09T04:22:53;3.07;;;2.57;;
5622;SDS011;2833;50.432;10.706;2022-09-09T04:25:18;9.00;;;3.07;;
5622;SDS011;2833;50.432;10.706;2022-09-09T04:27:43;3.00;;;2.17;;
5622;SDS011;2833;50.432;10.706;2022-09-09T04:30:09;2.60;;;2.17;;
5622;SDS011;2833;50.432;10.706;2022-09-09T04:32:35;3.00;;;2.60;;
5622;SDS011;2833;50.432;10.706;2022-09-09T04:35:01;3.73;;;2.63;;
5622;SDS011;2833;50.432;10.706;2022-09-09T04:37:27;3.10;;;2.80;;
5622;SDS011;2833;50.432;10.706;2022-09-09T04:39:53;2.53;;;2.30;;
5622;SDS011;2833;50.432;10.706;2022-09-09T04:42:19;5.80;;;2.57;;
5622;SDS011;2833;50.432;10.706;2022-09-09T04:44:44;2.60;;;2.40;;
5622;SDS011;2833;50.432;10.706;2022-09-09T04:47:10;2.60;;;2.33;;
5622;SDS011;2833;50.432;10.706;2022-09-09T04:49:35;5.67;;;2.53;;
5622;SDS011;2833;50.432;10.706;2022-09-09T04:52:02;2.40;;;2.20;;
5622;SDS011;2833;50.432;10.706;2022-09-09T04:54:27;3.63;;;2.80;;
5622;SDS011;2833;50.432;10.706;2022-09-09T04:56:53;2.67;;;2.40;;
5622;SDS011;2833;50.432;10.706;2022-09-09T04:59:18;2.70;;;2.50;;
5622;SDS011;2833;50.432;10.706;2022-09-09T05:01:44;2.53;;;2.33;;
5622;SDS011;2833;50.432;10.706;2022-09-09T05:04:09;3.57;;;2.40;;
5622;SDS011;2833;50.432;10.706;2022-09-09T05:06:36;2.63;;;2.10;;
5622;SDS011;2833;50.432;10.706;2022-09-09T05:09:02;3.90;;;2.60;;
5622;SDS011;2833;50.432;10.706;2022-09-09T05:11:28;3.30;;;2.67;;
5622;SDS011;2833;50.432;10.706;2022-09-09T05:13:54;2.40;;;2.30;;
5622;SDS011;2833;50.432;10.706;2022-09-09T05:16:19;2.50;;;2.40;;
5622;SDS011;2833;50.432;10.706;2022-09-09T05:18:45;3.23;;;2.27;;
5622;SDS011;2833;50.432;10.706;2022-09-09T05:21:15;6.77;;;2.20;;
5622;SDS011;2833;50.432;10.706;2022-09-09T05:23:40;3.07;;;2.63;;
5622;SDS011;2833;50.432;10.706;2022-09-09T05:26:07;4.60;;;2.60;;
5622;SDS011;2833;50.432;10.706;2022-09-09T05:28:33;4.07;;;2.63;;
5622;SDS011;2833;50.432;10.706;2022-09-09T05:31:00;3.70;;;2.80;;
5622;SDS011;2833;50.432;10.706;2022-09-09T05:33:26;2.70;;;2.50;;
5622;SDS011;2833;50.432;10.706;2022-09-09T05:36:02;2.70;;;2.50;;
5622;SDS011;2833;50.432;10.706;2022-09-09T05:38:28;5.67;;;3.00;;
5622;SDS011;2833;50.432;10.706;2022-09-09T05:40:54;3.40;;;2.93;;
5622;SDS011;2833;50.432;10.706;2022-09-09T05:43:19;2.80;;;2.60;;
5622;SDS011;2833;50.432;10.706;2022-09-09T05:45:45;3.73;;;2.90;;
5622;SDS011;2833;50.432;10.706;2022-09-09T05:48:12;2.57;;;2.37;;
5622;SDS011;2833;50.432;10.706;2022-09-09T05:50:37;4.03;;;3.03;;
5622;SDS011;2833;50.432;10.706;2022-09-09T05:53:02;2.83;;;2.60;;
5622;SDS011;2833;50.432;10.706;2022-09-09T05:55:28;2.67;;;2.47;;
5622;SDS011;2833;50.432;10.706;2022-09-09T05:57:53;2.90;;;2.60;;
5622;SDS011;2833;50.432;10.706;2022-09-09T06:00:19;2.80;;;2.53;;
5622;SDS011;2833;50.432;10.706;2022-09-09T06:02:49;3.23;;;2.50;;
5622;SDS011;2833;50.432;10.706;2022-09-09T06:05:15;2.60;;;2.40;;
5622;SDS011;2833;50.432;10.706;2022-09-09T06:07:41;7.13;;;3.10;;
5622;SDS011;2833;50.432;10.706;2022-09-09T06:10:07;5.97;;;3.00;;
5622;SDS011;2833;50.432;10.706;2022-09-09T06:12:33;5.70;;;2.87;;
5622;SDS011;2833;50.432;10.706;2022-09-09T06:14:58;3.53;;;2.70;;
5622;SDS011;2833;50.432;10.706;2022-09-09T06:17:23;4.47;;;3.30;;
5622;SDS011;2833;50.432;10.706;2022-09-09T06:19:49;5.00;;;2.70;;
5622;SDS011;2833;50.432;10.706;2022-09-09T06:22:14;4.50;;;3.27;;
5622;SDS011;2833;50.432;10.706;2022-09-09T06:24:39;3.70;;;3.30;;
5622;SDS011;2833;50.432;10.706;2022-09-09T06:27:04;2.93;;;2.73;;
5622;SDS011;2833;50.432;10.706;2022-09-09T06:29:30;3.30;;;3.00;;
5622;SDS011;2833;50.432;10.706;2022-09-09T06:31:55;4.47;;;3.30;;
5622;SDS011;2833;50.432;10.706;2022-09-09T06:34:21;4.60;;;3.10;;
5622;SDS011;2833;50.432;10.706;2022-09-09T06:36:46;4.50;;;3.30;;
5622;SDS011;2833;50.432;10.706;2022-09-09T06:39:11;4.83;;;3.20;;
5622;SDS011;2833;50.432;10.706;2022-09-09T06:41:38;4.87;;;2.90;;
5622;SDS011;2833;50.432;10.706;2022-09-09T06:44:03;3.60;;;2.70;;
5622;SDS011;2833;50.432;10.706;2022-09-09T06:46:30;2.67;;;2.43;;
5622;SDS011;2833;50.432;10.706;2022-09-09T06:48:57;5.40;;;2.80;;
5622;SDS011;2833;50.432;10.706;2022-09-09T06:51:24;3.47;;;2.83;;
5622;SDS011;2833;50.432;10.706;2022-09-09T06:53:51;3.43;;;2.77;;
5622;SDS011;2833;50.432;10.706;2022-09-09T06:56:18;8.20;;;2.47;;
5622;SDS011;2833;50.432;10.706;2022-09-09T06:58:44;2.70;;;2.50;;
5622;SDS011;2833;50.432;10.706;2022-09-09T07:01:10;3.00;;;2.43;;
5622;SDS011;2833;50.432;10.706;2022-09-09T07:03:37;2.77;;;2.30;;
5622;SDS011;2833;50.432;10.706;2022-09-09T07:06:03;4.10;;;2.37;;
5622;SDS011;2833;50.432;10.706;2022-09-09T07:08:29;2.43;;;2.23;;
5622;SDS011;2833;50.432;10.706;2022-09-09T07:11:01;2.20;;;2.00;;
5622;SDS011;2833;50.432;10.706;2022-09-09T07:13:26;6.43;;;2.57;;
5622;SDS011;2833;50.432;10.706;2022-09-09T07:15:52;2.53;;;2.23;;
5622;SDS011;2833;50.432;10.706;2022-09-09T07:18:17;2.83;;;2.20;;
5622;SDS011;2833;50.432;10.706;2022-09-09T07:20:42;3.90;;;2.30;;
5622;SDS011;2833;50.432;10.706;2022-09-09T07:23:08;2.50;;;2.30;;
5622;SDS011;2833;50.432;10.706;2022-09-09T07:25:33;8.67;;;2.10;;
5622;SDS011;2833;50.432;10.706;2022-09-09T07:27:58;3.17;;;2.63;;
5622;SDS011;2833;50.432;10.706;2022-09-09T07:30:23;3.60;;;2.80;;
5622;SDS011;2833;50.432;10.706;2022-09-09T07:32:50;6.37;;;4.67;;
5622;SDS011;2833;50.432;10.706;2022-09-09T07:35:15;11.60;;;7.57;;
5622;SDS011;2833;50.432;10.706;2022-09-09T07:37:41;9.30;;;5.97;;
5622;SDS011;2833;50.432;10.706;2022-09-09T07:40:06;4.93;;;3.43;;
5622;SDS011;2833;50.432;10.706;2022-09-09T07:42:31;4.93;;;2.97;;
5622;SDS011;2833;50.432;10.706;2022-09-09T07:44:56;3.97;;;2.60;;
5622;SDS011;2833;50.432;10.706;2022-09-09T07:47:21;3.33;;;2.70;;
5622;SDS011;2833;50.432;10.706;2022-09-09T07:49:49;7.23;;;5.00;;
5622;SDS011;2833;50.432;10.706;2022-09-09T07:52:14;8.23;;;6.00;;
5622;SDS011;2833;50.432;10.706;2022-09-09T07:54:40;3.93;;;3.47;;
5622;SDS011;2833;50.432;10.706;2022-09-09T07:57:05;3.90;;;3.07;;
5622;SDS011;2833;50.432;10.706;2022-09-09T07:59:30;3.67;;;3.37;;
5622;SDS011;2833;50.432;10.706;2022-09-09T08:01:55;8.30;;;6.27;;
5622;SDS011;2833;50.432;10.706;2022-09-09T08:04:21;6.20;;;5.03;;
5622;SDS011;2833;50.432;10.706;2022-09-09T08:06:51;3.70;;;2.53;;
5622;SDS011;2833;50.432;10.706;2022-09-09T08:09:17;9.77;;;7.63;;
5622;SDS011;2833;50.432;10.706;2022-09-09T08:11:43;8.63;;;5.87;;
5622;SDS011;2833;50.432;10.706;2022-09-09T08:14:08;9.13;;;6.57;;
5622;SDS011;2833;50.432;10.706;2022-09-09T08:16:35;7.10;;;4.03;;
5622;SDS011;2833;50.432;10.706;2022-09-09T08:19:01;5.03;;;3.40;;
5622;SDS011;2833;50.432;10.706;2022-09-09T08:21:28;6.60;;;3.60;;
5622;SDS011;2833;50.432;10.706;2022-09-09T08:23:53;2.67;;;2.47;;
5622;SDS011;2833;50.432;10.706;2022-09-09T08:26:20;4.63;;;2.70;;
5622;SDS011;2833;50.432;10.706;2022-09-09T08:28:51;4.90;;;4.27;;
5622;SDS011;2833;50.432;10.706;2022-09-09T08:31:19;2.70;;;2.50;;
5622;SDS011;2833;50.432;10.706;2022-09-09T08:33:44;3.40;;;2.00;;
5622;SDS011;2833;50.432;10.706;2022-09-09T08:36:16;4.73;;;2.07;;
5622;SDS011;2833;50.432;10.706;2022-09-09T08:38:42;2.30;;;2.10;;
5622;SDS011;2833;50.432;10.706;2022-09-09T08:41:14;6.63;;;2.97;;
5622;SDS011;2833;50.432;10.706;2022-09-09T08:43:46;2.23;;;1.97;;
5622;SDS011;2833;50.432;10.706;2022-09-09T08:46:24;3.63;;;2.10;;
5622;SDS011;2833;50.432;10.706;2022-09-09T08:48:58;1.83;;;1.73;;
5622;SDS011;2833;50.432;10.706;2022-09-09T08:51:25;1.70;;;1.60;;
5622;SDS011;2833;50.432;10.706;2022-09-09T08:53:52;5.27;;;2.03;;
5622;SDS011;2833;50.432;10.706;2022-09-09T08:56:18;2.27;;;2.07;;
5622;SDS011;2833;50.432;10.706;2022-09-09T08:58:47;2.87;;;1.97;;
5622;SDS011;2833;50.432;10.706;2022-09-09T09:04:02;4.17;;;2.90;;
5622;SDS011;2833;50.432;10.706;2022-09-09T09:11:26;2.97;;;1.77;;
5622;SDS011;2833;50.432;10.706;2022-09-09T09:13:57;1.60;;;1.50;;
5622;SDS011;2833;50.432;10.706;2022-09-09T09:16:23;2.73;;;2.00;;
5622;SDS011;2833;50.432;10.706;2022-09-09T09:18:52;3.67;;;1.57;;
5622;SDS011;2833;50.432;10.706;2022-09-09T09:21:20;4.00;;;1.50;;
5622;SDS011;2833;50.432;10.706;2022-09-09T09:23:53;3.77;;;1.80;;
5622;SDS011;2833;50.432;10.706;2022-09-09T09:26:20;4.17;;;1.77;;
5622;SDS011;2833;50.432;10.706;2022-09-09T09:28:47;1.40;;;1.30;;
5622;SDS011;2833;50.432;10.706;2022-09-09T09:31:12;3.10;;;1.70;;
5622;SDS011;2833;50.432;10.706;2022-09-09T09:33:49;2.23;;;1.50;;
5622;SDS011;2833;50.432;10.706;2022-09-09T09:36:14;2.00;;;1.80;;
5622;SDS011;2833;50.432;10.706;2022-09-09T09:38:50;3.90;;;1.53;;
5622;SDS011;2833;50.432;10.706;2022-09-09T09:41:16;5.17;;;1.80;;
5622;SDS011;2833;50.432;10.706;2022-09-09T09:43:52;1.67;;;1.30;;
5622;SDS011;2833;50.432;10.706;2022-09-09T09:46:22;2.40;;;1.60;;
5622;SDS011;2833;50.432;10.706;2022-09-09T09:49:08;2.87;;;1.53;;
5622;SDS011;2833;50.432;10.706;2022-09-09T09:51:34;2.33;;;1.87;;
5622;SDS011;2833;50.432;10.706;2022-09-09T09:54:22;1.63;;;1.30;;
5622;SDS011;2833;50.432;10.706;2022-09-09T09:56:48;2.57;;;1.50;;
5622;SDS011;2833;50.432;10.706;2022-09-09T10:02:15;1.97;;;1.33;;
5622;SDS011;2833;50.432;10.706;2022-09-09T10:04:41;4.50;;;1.50;;
5622;SDS011;2833;50.432;10.706;2022-09-09T10:07:10;1.70;;;1.60;;
5622;SDS011;2833;50.432;10.706;2022-09-09T10:09:36;2.13;;;1.93;;
5622;SDS011;2833;50.432;10.706;2022-09-09T10:14:51;1.53;;;1.43;;
5622;SDS011;2833;50.432;10.706;2022-09-09T10:19:54;2.83;;;1.70;;
5622;SDS011;2833;50.432;10.706;2022-09-09T10:22:27;1.90;;;1.70;;
5622;SDS011;2833;50.432;10.706;2022-09-09T10:37:55;2.73;;;1.70;;
5622;SDS011;2833;50.432;10.706;2022-09-09T10:40:32;2.47;;;1.60;;
5622;SDS011;2833;50.432;10.706;2022-09-09T10:43:04;4.10;;;2.03;;
5622;SDS011;2833;50.432;10.706;2022-09-09T10:45:37;1.83;;;1.60;;
5622;SDS011;2833;50.432;10.706;2022-09-09T10:53:35;4.00;;;1.90;;
5622;SDS011;2833;50.432;10.706;2022-09-09T10:56:02;7.80;;;1.77;;
5622;SDS011;2833;50.432;10.706;2022-09-09T10:58:31;2.20;;;1.20;;
5622;SDS011;2833;50.432;10.706;2022-09-09T11:01:00;2.83;;;2.00;;
5622;SDS011;2833;50.432;10.706;2022-09-09T11:03:28;3.90;;;1.87;;
5622;SDS011;2833;50.432;10.706;2022-09-09T11:06:04;4.83;;;1.90;;
5622;SDS011;2833;50.432;10.706;2022-09-09T11:08:31;7.17;;;3.13;;
5622;SDS011;2833;50.432;10.706;2022-09-09T11:11:10;4.73;;;2.03;;
5622;SDS011;2833;50.432;10.706;2022-09-09T11:13:39;2.13;;;1.80;;
5622;SDS011;2833;50.432;10.706;2022-09-09T11:16:29;25.67;;;10.73;;
5622;SDS011;2833;50.432;10.706;2022-09-09T11:18:57;6.47;;;4.20;;
5622;SDS011;2833;50.432;10.706;2022-09-09T11:21:25;3.87;;;1.93;;
5622;SDS011;2833;50.432;10.706;2022-09-09T11:23:54;4.83;;;1.60;;
5622;SDS011;2833;50.432;10.706;2022-09-09T11:26:28;2.03;;;1.47;;
5622;SDS011;2833;50.432;10.706;2022-09-09T11:28:58;3.37;;;1.60;;
5622;SDS011;2833;50.432;10.706;2022-09-09T11:37:08;1.60;;;1.20;;
5622;SDS011;2833;50.432;10.706;2022-09-09T11:39:39;3.30;;;1.50;;
5622;SDS011;2833;50.432;10.706;2022-09-09T11:44:38;1.60;;;1.50;;
5622;SDS011;2833;50.432;10.706;2022-09-09T11:47:14;3.47;;;1.97;;
5622;SDS011;2833;50.432;10.706;2022-09-09T11:49:41;2.93;;;1.80;;
5622;SDS011;2833;50.432;10.706;2022-09-09T11:52:20;2.03;;;1.60;;
5622;SDS011;2833;50.432;10.706;2022-09-09T11:54:47;1.30;;;1.20;;
5622;SDS011;2833;50.432;10.706;2022-09-09T11:57:45;1.73;;;1.40;;
5622;SDS011;2833;50.432;10.706;2022-09-09T12:00:04;5.73;;;1.50;;
5622;SDS011;2833;50.432;10.706;2022-09-09T12:02:30;3.60;;;1.70;;
5622;SDS011;2833;50.432;10.706;2022-09-09T12:05:01;6.03;;;1.60;;
5622;SDS011;2833;50.432;10.706;2022-09-09T12:07:35;4.23;;;1.83;;
5622;SDS011;2833;50.432;10.706;2022-09-09T12:10:19;2.53;;;1.70;;
5622;SDS011;2833;50.432;10.706;2022-09-09T12:12:45;2.63;;;2.00;;
5622;SDS011;2833;50.432;10.706;2022-09-09T12:17:41;2.90;;;1.50;;
5622;SDS011;2833;50.432;10.706;2022-09-09T12:27:36;3.90;;;1.97;;
5622;SDS011;2833;50.432;10.706;2022-09-09T12:30:09;3.67;;;1.83;;
5622;SDS011;2833;50.432;10.706;2022-09-09T12:32:35;1.83;;;1.67;;
5622;SDS011;2833;50.432;10.706;2022-09-09T12:35:03;2.40;;;1.33;;
5622;SDS011;2833;50.432;10.706;2022-09-09T12:37:35;1.53;;;1.43;;
5622;SDS011;2833;50.432;10.706;2022-09-09T12:42:45;4.60;;;2.93;;
5622;SDS011;2833;50.432;10.706;2022-09-09T12:45:20;26.03;;;10.27;;
5622;SDS011;2833;50.432;10.706;2022-09-09T12:48:08;9.10;;;4.80;;
5622;SDS011;2833;50.432;10.706;2022-09-09T12:50:37;3.33;;;2.30;;
5622;SDS011;2833;50.432;10.706;2022-09-09T12:53:04;3.97;;;1.30;;
5622;SDS011;2833;50.432;10.706;2022-09-09T12:55:32;4.30;;;1.47;;
5622;SDS011;2833;50.432;10.706;2022-09-09T12:57:59;1.53;;;1.40;;
5622;SDS011;2833;50.432;10.706;2022-09-09T13:00:25;2.33;;;1.60;;
5622;SDS011;2833;50.432;10.706;2022-09-09T13:02:55;1.43;;;1.33;;
5622;SDS011;2833;50.432;10.706;2022-09-09T13:08:00;1.67;;;1.30;;
5622;SDS011;2833;50.432;10.706;2022-09-09T13:10:27;5.00;;;1.30;;
5622;SDS011;2833;50.432;10.706;2022-09-09T13:12:53;3.93;;;1.30;;
5622;SDS011;2833;50.432;10.706;2022-09-09T13:15:20;2.00;;;1.43;;
5622;SDS011;2833;50.432;10.706;2022-09-09T13:18:02;1.93;;;1.70;;
5622;SDS011;2833;50.432;10.706;2022-09-09T13:20:28;2.10;;;1.80;;
5622;SDS011;2833;50.432;10.706;2022-09-09T13:22:54;2.80;;;1.30;;
5622;SDS011;2833;50.432;10.706;2022-09-09T13:25:21;1.53;;;1.40;;
5622;SDS011;2833;50.432;10.706;2022-09-09T13:27:59;2.03;;;1.30;;
5622;SDS011;2833;50.432;10.706;2022-09-09T13:30:32;1.30;;;1.20;;
5622;SDS011;2833;50.432;10.706;2022-09-09T13:35:29;1.37;;;1.27;;
5622;SDS011;2833;50.432;10.706;2022-09-09T13:37:54;1.20;;;1.07;;
5622;SDS011;2833;50.432;10.706;2022-09-09T13:40:21;2.00;;;1.40;;
5622;SDS011;2833;50.432;10.706;2022-09-09T13:42:46;2.10;;;1.40;;
5622;SDS011;2833;50.432;10.706;2022-09-09T13:45:19;2.60;;;1.43;;
5622;SDS011;2833;50.432;10.706;2022-09-09T13:47:47;2.20;;;1.47;;
5622;SDS011;2833;50.432;10.706;2022-09-09T13:50:35;2.57;;;1.67;;
5622;SDS011;2833;50.432;10.706;2022-09-09T13:53:00;2.67;;;1.40;;
5622;SDS011;2833;50.432;10.706;2022-09-09T13:55:29;1.20;;;1.10;;
5622;SDS011;2833;50.432;10.706;2022-09-09T13:57:58;1.53;;;0.93;;
5622;SDS011;2833;50.432;10.706;2022-09-09T14:00:25;1.27;;;1.03;;
5622;SDS011;2833;50.432;10.706;2022-09-09T14:02:51;1.30;;;1.20;;
5622;SDS011;2833;50.432;10.706;2022-09-09T14:05:17;2.53;;;1.07;;
5622;SDS011;2833;50.432;10.706;2022-09-09T14:07:42;2.97;;;1.27;;
5622;SDS011;2833;50.432;10.706;2022-09-09T14:10:08;1.10;;;1.00;;
5622;SDS011;2833;50.432;10.706;2022-09-09T14:12:34;1.00;;;1.00;;
5622;SDS011;2833;50.432;10.706;2022-09-09T14:15:00;0.90;;;0.90;;
5622;SDS011;2833;50.432;10.706;2022-09-09T14:17:26;1.30;;;1.00;;
5622;SDS011;2833;50.432;10.706;2022-09-09T14:19:56;2.10;;;1.20;;
5622;SDS011;2833;50.432;10.706;2022-09-09T14:22:21;2.60;;;1.10;;
5622;SDS011;2833;50.432;10.706;2022-09-09T14:24:47;2.10;;;1.00;;
5622;SDS011;2833;50.432;10.706;2022-09-09T14:27:12;1.10;;;1.10;;
5622;SDS011;2833;50.432;10.706;2022-09-09T14:29:37;1.20;;;1.10;;
5622;SDS011;2833;50.432;10.706;2022-09-09T14:32:02;1.20;;;1.10;;
5622;SDS011;2833;50.432;10.706;2022-09-09T14:34:28;5.70;;;1.30;;
5622;SDS011;2833;50.432;10.706;2022-09-09T14:36:53;2.30;;;1.20;;
5622;SDS011;2833;50.432;10.706;2022-09-09T14:39:18;1.17;;;1.07;;
5622;SDS011;2833;50.432;10.706;2022-09-09T14:41:44;1.23;;;0.90;;
5622;SDS011;2833;50.432;10.706;2022-09-09T14:44:10;2.13;;;0.93;;
5622;SDS011;2833;50.432;10.706;2022-09-09T14:46:35;0.80;;;0.80;;
5622;SDS011;2833;50.432;10.706;2022-09-09T14:49:00;1.07;;;0.97;;
5622;SDS011;2833;50.432;10.706;2022-09-09T14:51:26;0.80;;;0.80;;
5622;SDS011;2833;50.432;10.706;2022-09-09T14:53:55;1.23;;;1.03;;
5622;SDS011;2833;50.432;10.706;2022-09-09T14:56:23;1.10;;;0.83;;
5622;SDS011;2833;50.432;10.706;2022-09-09T14:58:49;1.87;;;0.97;;
5622;SDS011;2833;50.432;10.706;2022-09-09T15:01:17;1.20;;;0.80;;
5622;SDS011;2833;50.432;10.706;2022-09-09T15:03:48;7.90;;;0.90;;
5622;SDS011;2833;50.432;10.706;2022-09-09T15:06:14;1.20;;;1.10;;
5622;SDS011;2833;50.432;10.706;2022-09-09T15:08:42;1.57;;;0.97;;
5622;SDS011;2833;50.432;10.706;2022-09-09T15:11:07;3.03;;;1.37;;
5622;SDS011;2833;50.432;10.706;2022-09-09T15:13:33;2.00;;;1.00;;
5622;SDS011;2833;50.432;10.706;2022-09-09T15:16:06;2.70;;;1.00;;
5622;SDS011;2833;50.432;10.706;2022-09-09T15:18:32;1.33;;;0.97;;
5622;SDS011;2833;50.432;10.706;2022-09-09T15:20:58;2.60;;;1.20;;
5622;SDS011;2833;50.432;10.706;2022-09-09T15:23:25;5.73;;;1.30;;
5622;SDS011;2833;50.432;10.706;2022-09-09T15:25:51;2.50;;;1.20;;
5622;SDS011;2833;50.432;10.706;2022-09-09T15:28:16;2.63;;;1.40;;
5622;SDS011;2833;50.432;10.706;2022-09-09T15:30:42;1.17;;;0.97;;
5622;SDS011;2833;50.432;10.706;2022-09-09T15:33:09;3.17;;;1.00;;
5622;SDS011;2833;50.432;10.706;2022-09-09T15:35:34;2.07;;;1.10;;
5622;SDS011;2833;50.432;10.706;2022-09-09T15:38:01;1.77;;;1.00;;
5622;SDS011;2833;50.432;10.706;2022-09-09T15:40:26;1.00;;;1.00;;
5622;SDS011;2833;50.432;10.706;2022-09-09T15:42:51;1.57;;;1.23;;
5622;SDS011;2833;50.432;10.706;2022-09-09T15:45:17;2.73;;;1.17;;
5622;SDS011;2833;50.432;10.706;2022-09-09T15:47:42;1.07;;;1.00;;
5622;SDS011;2833;50.432;10.706;2022-09-09T15:50:07;1.83;;;1.20;;
5622;SDS011;2833;50.432;10.706;2022-09-09T15:52:32;1.23;;;1.00;;
5622;SDS011;2833;50.432;10.706;2022-09-09T15:54:58;1.50;;;1.00;;
5622;SDS011;2833;50.432;10.706;2022-09-09T15:57:24;2.57;;;1.20;;
5622;SDS011;2833;50.432;10.706;2022-09-09T15:59:49;5.30;;;1.00;;
5622;SDS011;2833;50.432;10.706;2022-09-09T16:02:14;2.00;;;0.90;;
5622;SDS011;2833;50.432;10.706;2022-09-09T16:04:40;3.07;;;1.30;;
5622;SDS011;2833;50.432;10.706;2022-09-09T16:07:05;1.87;;;1.10;;
5622;SDS011;2833;50.432;10.706;2022-09-09T16:09:31;1.13;;;1.00;;
5622;SDS011;2833;50.432;10.706;2022-09-09T16:11:57;1.47;;;1.00;;
5622;SDS011;2833;50.432;10.706;2022-09-09T16:14:23;3.80;;;1.30;;
5622;SDS011;2833;50.432;10.706;2022-09-09T16:16:49;4.03;;;1.30;;
5622;SDS011;2833;50.432;10.706;2022-09-09T16:19:14;3.27;;;1.10;;
5622;SDS011;2833;50.432;10.706;2022-09-09T16:21:41;1.60;;;1.10;;
5622;SDS011;2833;50.432;10.706;2022-09-09T16:24:09;1.33;;;0.90;;
5622;SDS011;2833;50.432;10.706;2022-09-09T16:26:35;2.37;;;1.30;;
5622;SDS011;2833;50.432;10.706;2022-09-09T16:29:00;1.57;;;1.30;;
5622;SDS011;2833;50.432;10.706;2022-09-09T16:31:27;1.37;;;0.97;;
5622;SDS011;2833;50.432;10.706;2022-09-09T16:33:52;1.23;;;1.23;;
5622;SDS011;2833;50.432;10.706;2022-09-09T16:36:19;1.40;;;1.30;;
5622;SDS011;2833;50.432;10.706;2022-09-09T16:38:45;2.00;;;1.70;;
5622;SDS011;2833;50.432;10.706;2022-09-09T16:41:10;1.47;;;1.20;;
5622;SDS011;2833;50.432;10.706;2022-09-09T16:43:36;1.67;;;1.30;;
5622;SDS011;2833;50.432;10.706;2022-09-09T16:46:15;2.93;;;1.60;;
5622;SDS011;2833;50.432;10.706;2022-09-09T16:48:41;1.40;;;1.30;;